Time;durP1;ratioP1;P1;durP2;ratioP2;P2;SDS_P1;SDS_P2;PMS_P1;PMS_P2;Temp;Humidity;BMP_temperature;BMP_pressure;BME280_temperature;BME280_humidity;BME280_pressure;Samples;Min_cycle;Max_cycle;Signal;HPM_P1;HPM_P2
2022/05/21 00:01:31;;;;;;;21.33;8.93;;;;;;;-145.19;100.00;57938.22;5010195;28;20113;-71
2022/05/21 00:03:56;;;;;;;15.10;8.07;;;;;;;-145.19;100.00;57938.22;5009722;28;20491;-71
2022/05/21 00:06:22;;;;;;;17.07;9.20;;;;;;;-145.19;100.00;57938.22;5009807;28;20026;-71
2022/05/21 00:08:47;;;;;;;13.53;9.33;;;;;;;-145.19;100.00;57938.22;5009389;28;20117;-71
2022/05/21 00:11:12;;;;;;;15.83;8.53;;;;;;;-145.19;100.00;57938.22;5008182;28;20479;-71
2022/05/21 00:13:38;;;;;;;18.60;9.50;;;;;;;-145.19;100.00;57938.22;5010148;28;20041;-71
2022/05/21 00:16:05;;;;;;;20.17;8.80;;;;;;;-145.19;100.00;57938.22;5009769;28;20033;-71
2022/05/21 00:18:31;;;;;;;19.97;10.43;;;;;;;-145.19;100.00;57938.22;5009692;28;20116;-71
2022/05/21 00:20:56;;;;;;;16.43;8.23;;;;;;;-145.19;100.00;57938.22;5009202;28;20106;-71
2022/05/21 00:23:30;;;;;;;15.03;8.00;;;;;;;-145.19;100.00;57938.22;5010443;28;20069;-71
2022/05/21 00:26:06;;;;;;;15.97;7.80;;;;;;;-145.19;100.00;57938.22;5010974;28;20026;-71
2022/05/21 00:28:33;;;;;;;17.07;8.17;;;;;;;-145.19;100.00;57938.22;5012417;28;20030;-71
2022/05/21 00:30:59;;;;;;;14.53;7.40;;;;;;;-145.19;100.00;57938.22;5013977;28;20034;-71
2022/05/21 00:33:27;;;;;;;16.27;7.80;;;;;;;-145.19;100.00;57938.22;5013073;28;20037;-71
2022/05/21 00:35:53;;;;;;;13.73;7.27;;;;;;;-145.19;100.00;57938.22;5013945;28;20093;-71
2022/05/21 00:38:19;;;;;;;17.97;7.70;;;;;;;-145.19;100.00;57938.22;5014230;28;20025;-71
2022/05/21 00:40:45;;;;;;;18.80;9.00;;;;;;;-145.19;100.00;57938.22;4996910;28;20108;-71
2022/05/21 00:43:38;;;;;;;16.40;8.87;;;;;;;-145.19;100.00;57938.22;5014171;28;20048;-71
2022/05/21 00:46:07;;;;;;;21.40;9.03;;;;;;;-145.19;100.00;57938.22;5013600;28;20029;-71
2022/05/21 00:48:34;;;;;;;19.73;10.33;;;;;;;-145.19;100.00;57938.22;5013973;28;20029;-71
2022/05/21 00:51:00;;;;;;;20.90;9.60;;;;;;;-145.19;100.00;57938.22;5013581;28;20038;-71
2022/05/21 00:53:27;;;;;;;23.33;9.53;;;;;;;-145.19;100.00;57938.22;5013554;28;20041;-71
2022/05/21 00:55:53;;;;;;;25.83;10.87;;;;;;;-145.19;100.00;57938.22;5013774;28;20038;-71
2022/05/21 01:01:07;;;;;;;28.17;13.10;;;;;;;-145.19;100.00;57938.22;5014107;28;20057;-71
2022/05/21 01:03:32;;;;;;;27.63;11.70;;;;;;;-145.19;100.00;57938.22;5012774;28;20780;-71
2022/05/21 01:05:59;;;;;;;21.93;10.27;;;;;;;-145.19;100.00;57938.22;5013742;28;20058;-71
2022/05/21 01:08:25;;;;;;;20.33;10.87;;;;;;;-145.19;100.00;57938.22;5014125;28;20441;-72
2022/05/21 01:10:57;;;;;;;22.67;9.47;;;;;;;-145.19;100.00;57938.22;5013016;28;20091;-71
2022/05/21 01:13:26;;;;;;;25.67;9.80;;;;;;;-145.19;100.00;57938.22;5013294;28;20036;-72
2022/05/21 01:15:53;;;;;;;25.90;10.33;;;;;;;-145.19;100.00;57938.22;5013684;28;20602;-72
2022/05/21 01:18:22;;;;;;;24.47;9.60;;;;;;;-145.19;100.00;57938.22;5012718;28;20034;-72
2022/05/21 01:20:53;;;;;;;27.70;11.03;;;;;;;-145.19;100.00;57938.22;5013661;28;20038;-72
2022/05/21 01:23:19;;;;;;;24.93;9.80;;;;;;;-145.19;100.00;57938.22;5013033;28;20045;-72
2022/05/21 01:25:47;;;;;;;23.43;10.40;;;;;;;-145.19;100.00;57938.22;5012205;28;20104;-72
2022/05/21 01:28:15;;;;;;;23.77;11.57;;;;;;;-145.19;100.00;57938.22;5012967;28;20033;-72
2022/05/21 01:30:43;;;;;;;33.03;11.90;;;;;;;-145.19;100.00;57938.22;5013338;28;20533;-72
2022/05/21 01:33:13;;;;;;;35.07;14.10;;;;;;;-145.19;100.00;57938.22;5013377;28;20030;-72
2022/05/21 01:35:42;;;;;;;26.40;11.93;;;;;;;-145.19;100.00;57938.22;5013149;28;20036;-71
2022/05/21 01:38:08;;;;;;;25.50;11.33;;;;;;;-145.19;100.00;57938.22;5013351;28;20045;-72
2022/05/21 01:40:34;;;;;;;22.43;10.50;;;;;;;-145.19;100.00;57938.22;5013015;28;20041;-72
2022/05/21 01:45:45;;;;;;;25.67;11.10;;;;;;;-145.19;100.00;57938.22;5012448;28;20065;-71
2022/05/21 01:48:11;;;;;;;31.07;11.30;;;;;;;-145.19;100.00;57938.22;5013148;28;20041;-72
2022/05/21 01:50:38;;;;;;;24.50;12.67;;;;;;;-145.19;100.00;57938.22;5012801;28;20818;-72
2022/05/21 01:53:04;;;;;;;33.57;13.00;;;;;;;-145.19;100.00;57938.22;5012961;28;20073;-72
2022/05/21 01:55:30;;;;;;;25.67;12.50;;;;;;;-145.19;100.00;57938.22;5012246;28;20459;-72
2022/05/21 01:57:55;;;;;;;26.67;12.23;;;;;;;-145.19;100.00;57938.22;5012709;28;20077;-72
2022/05/21 02:00:21;;;;;;;29.53;14.83;;;;;;;-145.19;100.00;57938.22;5012409;28;20034;-72
2022/05/21 02:02:46;;;;;;;38.07;14.37;;;;;;;-145.19;100.00;57938.22;5251205;22;20062;-71
2022/05/21 02:05:12;;;;;;;29.40;13.00;;;;;;;-145.19;100.00;57938.22;4992425;28;20061;-71
2022/05/21 02:07:38;;;;;;;26.30;12.87;;;;;;;-145.19;100.00;57938.22;5008767;28;20048;-71
2022/05/21 02:10:05;;;;;;;34.27;13.87;;;;;;;-145.19;100.00;57938.22;5009136;28;20521;-71
2022/05/21 02:12:30;;;;;;;28.23;14.50;;;;;;;-145.19;100.00;57938.22;5011598;28;20486;-71
2022/05/21 02:14:56;;;;;;;32.03;14.10;;;;;;;-145.19;100.00;57938.22;4978370;28;20033;-71
2022/05/21 02:17:22;;;;;;;28.27;12.77;;;;;;;-145.19;100.00;57938.22;4994804;28;20025;-71
2022/05/21 02:19:48;;;;;;;27.03;12.20;;;;;;;-145.19;100.00;57938.22;5012774;28;20022;-71
2022/05/21 02:22:13;;;;;;;24.47;12.63;;;;;;;-145.19;100.00;57938.22;5012181;28;20036;-71
2022/05/21 02:24:39;;;;;;;32.83;12.70;;;;;;;-145.19;100.00;57938.22;5012668;28;20034;-71
2022/05/21 02:27:11;;;;;;;29.33;12.63;;;;;;;-145.19;100.00;57938.22;5011842;28;20393;-71
2022/05/21 02:29:37;;;;;;;42.23;12.77;;;;;;;-145.19;100.00;57938.22;5012428;28;20100;-70
2022/05/21 02:32:04;;;;;;;28.10;12.00;;;;;;;-145.19;100.00;57938.22;5011892;28;20494;-71
2022/05/21 02:34:30;;;;;;;34.17;11.80;;;;;;;-145.19;100.00;57938.22;5032096;28;20034;-71
2022/05/21 02:39:39;;;;;;;25.13;11.53;;;;;;;-145.19;100.00;57938.22;5032602;28;20032;-71
2022/05/21 02:42:42;;;;;;;27.53;11.10;;;;;;;-145.19;100.00;57938.22;5031381;28;20397;-71
2022/05/21 02:44:50;;;;;;;25.35;11.07;;;;;;;-145.19;100.00;57938.22;5031678;28;20401;-71
2022/05/21 02:47:16;;;;;;;23.43;11.17;;;;;;;-145.19;100.00;57938.22;5031309;28;20041;-71
2022/05/21 02:49:41;;;;;;;36.53;12.30;;;;;;;-145.19;100.00;57938.22;5031807;28;20034;-71
2022/05/21 02:52:06;;;;;;;24.17;10.30;;;;;;;-145.19;100.00;57938.22;5030965;28;20045;-71
2022/05/21 02:54:32;;;;;;;26.87;10.10;;;;;;;-145.19;100.00;57938.22;5031931;28;20037;-71
2022/05/21 02:56:57;;;;;;;32.83;13.13;;;;;;;-145.19;100.00;57938.22;5031051;28;20034;-71
2022/05/21 02:59:22;;;;;;;28.57;11.47;;;;;;;-145.19;100.00;57938.22;5031398;28;20113;-71
2022/05/21 03:01:48;;;;;;;31.70;10.67;;;;;;;-145.19;100.00;57938.22;5031155;28;20036;-71
2022/05/21 03:04:14;;;;;;;33.73;12.77;;;;;;;-145.19;100.00;57938.22;5031401;28;20040;-71
2022/05/21 03:06:39;;;;;;;33.57;12.90;;;;;;;-145.19;100.00;57938.22;5031502;28;20037;-71
2022/05/21 03:11:49;;;;;;;25.57;11.33;;;;;;;-145.19;100.00;57938.22;5031659;28;20103;-71
2022/05/21 03:14:14;;;;;;;31.97;11.47;;;;;;;-145.19;100.00;57938.22;5031071;28;20041;-71
2022/05/21 03:16:40;;;;;;;26.23;10.70;;;;;;;-145.19;100.00;57938.22;5031220;28;20021;-71
2022/05/21 03:19:05;;;;;;;34.73;10.93;;;;;;;-145.19;100.00;57938.22;5030894;28;20051;-70
2022/05/21 03:21:31;;;;;;;27.63;10.63;;;;;;;-145.19;100.00;57938.22;5029606;28;20026;-71
2022/05/21 03:23:56;;;;;;;31.77;10.27;;;;;;;-145.19;100.00;57938.22;5027315;28;20121;-71
2022/05/21 03:26:22;;;;;;;32.07;11.43;;;;;;;-145.19;100.00;57938.22;5010358;28;20038;-71
2022/05/21 03:28:47;;;;;;;28.97;10.47;;;;;;;-145.19;100.00;57938.22;5011049;28;20117;-71
2022/05/21 03:31:12;;;;;;;33.03;11.23;;;;;;;-145.19;100.00;57938.22;5011001;28;20116;-71
2022/05/21 03:33:38;;;;;;;28.57;10.33;;;;;;;-145.19;100.00;57938.22;5011212;28;20038;-71
2022/05/21 03:36:04;;;;;;;29.70;11.23;;;;;;;-145.19;100.00;57938.22;5011311;28;20038;-71
2022/05/21 03:38:30;;;;;;;25.53;9.80;;;;;;;-145.19;100.00;57938.22;5010731;28;20100;-71
2022/05/21 03:40:55;;;;;;;28.20;10.03;;;;;;;-145.19;100.00;57938.22;5011227;28;20030;-71
2022/05/21 03:43:21;;;;;;;28.73;9.93;;;;;;;-145.19;100.00;57938.22;5009479;28;20102;-71
2022/05/21 03:45:46;;;;;;;29.17;9.67;;;;;;;-145.19;100.00;57938.22;5011010;28;20045;-71
2022/05/21 03:48:12;;;;;;;22.47;9.63;;;;;;;-145.19;100.00;57938.22;5010865;28;20033;-71
2022/05/21 03:50:37;;;;;;;25.83;10.67;;;;;;;-145.19;100.00;57938.22;5011138;28;20037;-71
2022/05/21 03:53:03;;;;;;;33.33;10.40;;;;;;;-145.19;100.00;57938.22;5010442;28;20030;-71
2022/05/21 03:55:30;;;;;;;32.37;9.87;;;;;;;-145.19;100.00;57938.22;5010978;28;20033;-71
2022/05/21 03:57:56;;;;;;;27.33;8.03;;;;;;;-145.19;100.00;57938.22;5010538;28;20117;-71
2022/05/21 04:00:22;;;;;;;29.73;8.50;;;;;;;-145.19;100.00;57938.22;5010871;28;20188;-71
2022/05/21 04:02:47;;;;;;;33.27;8.07;;;;;;;-145.19;100.00;57938.22;5009667;28;20062;-71
2022/05/21 04:05:14;;;;;;;32.93;8.17;;;;;;;-145.19;100.00;57938.22;5010574;28;20501;-71
2022/05/21 04:07:40;;;;;;;22.93;7.70;;;;;;;-145.19;100.00;57938.22;5025555;28;20045;-71
2022/05/21 04:10:07;;;;;;;31.27;7.60;;;;;;;-145.19;100.00;57938.22;5006932;28;20498;-71
2022/05/21 04:12:33;;;;;;;28.27;6.10;;;;;;;-145.19;100.00;57938.22;5009981;28;20553;-71
2022/05/21 04:14:58;;;;;;;27.57;6.20;;;;;;;-145.19;100.00;57938.22;5009869;28;20161;-71
2022/05/21 04:17:23;;;;;;;33.13;5.60;;;;;;;-145.19;100.00;57938.22;5009918;28;20048;-71
2022/05/21 04:19:49;;;;;;;28.30;5.43;;;;;;;-145.19;100.00;57938.22;5010409;28;20113;-71
2022/05/21 04:22:14;;;;;;;27.30;5.30;;;;;;;-145.19;100.00;57938.22;5009514;28;20030;-71
2022/05/21 04:24:40;;;;;;;25.17;5.43;;;;;;;-145.19;100.00;57938.22;5010054;28;20161;-72
2022/05/21 04:27:07;;;;;;;22.83;5.27;;;;;;;-145.19;100.00;57938.22;5013320;28;20064;-71
2022/05/21 04:29:34;;;;;;;21.97;5.57;;;;;;;-145.19;100.00;57938.22;5011007;28;20030;-72
2022/05/21 04:32:00;;;;;;;27.20;5.77;;;;;;;-145.19;100.00;57938.22;5010766;28;20061;-72
2022/05/21 04:34:25;;;;;;;29.37;5.00;;;;;;;-145.19;100.00;57938.22;5022797;28;20138;-71
2022/05/21 04:36:50;;;;;;;19.13;4.77;;;;;;;-145.19;100.00;57938.22;5009566;28;20037;-71
2022/05/21 04:39:16;;;;;;;20.93;4.80;;;;;;;-145.19;100.00;57938.22;5010235;28;20030;-71
2022/05/21 04:41:41;;;;;;;36.07;5.27;;;;;;;-145.19;100.00;57938.22;5010143;28;20054;-71
2022/05/21 04:44:07;;;;;;;25.57;6.00;;;;;;;-145.19;100.00;57938.22;5009430;28;20032;-71
2022/05/21 04:46:35;;;;;;;25.87;7.10;;;;;;;-145.19;100.00;57938.22;5009950;28;20042;-71
2022/05/21 04:49:00;;;;;;;31.33;7.87;;;;;;;-145.19;100.00;57938.22;5027315;28;20036;-71
2022/05/21 04:51:26;;;;;;;26.37;8.27;;;;;;;-145.19;100.00;57938.22;5029294;28;20440;-71
2022/05/21 04:53:51;;;;;;;32.87;6.60;;;;;;;-145.19;100.00;57938.22;5016118;28;20073;-71
2022/05/21 04:56:17;;;;;;;31.10;7.57;;;;;;;-145.19;100.00;57938.22;5010361;28;20042;-71
2022/05/21 04:58:42;;;;;;;28.53;6.53;;;;;;;-145.19;100.00;57938.22;5009824;28;20049;-71
2022/05/21 05:01:08;;;;;;;30.30;6.20;;;;;;;-145.19;100.00;57938.22;5010562;28;20030;-71
2022/05/21 05:03:34;;;;;;;22.63;5.43;;;;;;;-145.19;100.00;57938.22;5009866;28;20199;-71
2022/05/21 05:06:00;;;;;;;20.23;4.93;;;;;;;-145.19;100.00;57938.22;5010140;28;20466;-71
2022/05/21 05:08:26;;;;;;;21.77;4.07;;;;;;;-145.19;100.00;57938.22;5009858;28;20116;-71
2022/05/21 05:10:51;;;;;;;21.33;3.50;;;;;;;-145.19;100.00;57938.22;5009987;28;20163;-71
2022/05/21 05:13:18;;;;;;;24.00;3.70;;;;;;;-145.19;100.00;57938.22;5011471;28;20048;-71
2022/05/21 05:15:44;;;;;;;20.17;3.70;;;;;;;-145.19;100.00;57938.22;5013141;28;20034;-71
2022/05/21 05:18:14;;;;;;;24.47;3.80;;;;;;;-145.19;100.00;57938.22;5013351;28;20026;-71
2022/05/21 05:20:40;;;;;;;12.97;3.83;;;;;;;-145.19;100.00;57938.22;5013038;28;20141;-71
2022/05/21 05:23:06;;;;;;;22.47;3.50;;;;;;;-145.19;100.00;57938.22;5012645;28;20539;-71
2022/05/21 05:25:32;;;;;;;21.87;3.20;;;;;;;-145.19;100.00;57938.22;5013649;28;20025;-71
2022/05/21 05:27:58;;;;;;;27.00;3.67;;;;;;;-145.19;100.00;57938.22;5012608;28;20109;-71
2022/05/21 05:30:24;;;;;;;17.17;3.40;;;;;;;-145.19;100.00;57938.22;5012987;28;20116;-71
2022/05/21 05:32:50;;;;;;;23.57;3.60;;;;;;;-145.19;100.00;57938.22;5012564;28;20666;-71
2022/05/21 05:35:15;;;;;;;21.30;3.43;;;;;;;-145.19;100.00;57938.22;5013089;28;20033;-71
2022/05/21 05:37:41;;;;;;;21.47;3.10;;;;;;;-145.19;100.00;57938.22;5012595;28;20474;-71
2022/05/21 05:40:09;;;;;;;22.70;3.40;;;;;;;-145.19;100.00;57938.22;5012970;28;20034;-71
2022/05/21 05:42:36;;;;;;;21.60;2.50;;;;;;;-145.19;100.00;57938.22;5012842;28;20029;-71
2022/05/21 05:45:03;;;;;;;23.23;2.90;;;;;;;-145.19;100.00;57938.22;5012780;28;20038;-71
2022/05/21 05:47:31;;;;;;;13.53;3.23;;;;;;;-145.19;100.00;57938.22;5012701;28;20029;-71
2022/05/21 05:49:56;;;;;;;20.33;3.07;;;;;;;-145.19;100.00;57938.22;5015917;28;20052;-71
2022/05/21 05:52:22;;;;;;;22.73;3.33;;;;;;;-145.19;100.00;57938.22;5013754;28;20030;-71
2022/05/21 05:54:47;;;;;;;12.07;2.70;;;;;;;-145.19;100.00;57938.22;5030022;28;20508;-71
2022/05/21 05:57:12;;;;;;;17.90;2.80;;;;;;;-145.19;100.00;57938.22;5020159;28;20441;-71
2022/05/21 05:59:51;;;;;;;20.83;2.73;;;;;;;-145.19;100.00;57938.22;5010594;28;20030;-71
2022/05/21 06:05:05;;;;;;;15.67;2.80;;;;;;;-145.19;100.00;57938.22;5012159;28;20084;-71
2022/05/21 06:07:31;;;;;;;19.70;3.50;;;;;;;-145.19;100.00;57938.22;5012176;28;20119;-71
2022/05/21 06:10:05;;;;;;;18.50;3.37;;;;;;;-145.19;100.00;57938.22;5011048;28;20057;-71
2022/05/21 06:12:31;;;;;;;16.27;3.07;;;;;;;-145.19;100.00;57938.22;5011919;28;20028;-71
2022/05/21 06:14:58;;;;;;;17.30;2.80;;;;;;;-145.19;100.00;57938.22;5012329;28;20183;-70
2022/05/21 06:17:24;;;;;;;19.87;2.73;;;;;;;-145.19;100.00;57938.22;5012511;28;20025;-71
2022/05/21 06:19:49;;;;;;;14.13;2.83;;;;;;;-145.19;100.00;57938.22;5012238;28;20038;-71
2022/05/21 06:22:15;;;;;;;19.87;2.30;;;;;;;-145.19;100.00;57938.22;5043407;28;20066;-71
2022/05/21 06:24:40;;;;;;;18.33;3.13;;;;;;;-145.19;100.00;57938.22;5011866;28;20034;-71
2022/05/21 06:27:06;;;;;;;13.13;2.63;;;;;;;-145.19;100.00;57938.22;5011567;28;20026;-71
2022/05/21 06:29:31;;;;;;;22.30;3.00;;;;;;;-145.19;100.00;57938.22;5011983;28;20026;-71
2022/05/21 06:31:57;;;;;;;17.07;3.13;;;;;;;-145.19;100.00;57938.22;5011688;28;20482;-71
2022/05/21 06:34:23;;;;;;;19.87;3.00;;;;;;;-145.19;100.00;57938.22;5008022;28;20030;-71
2022/05/21 06:36:48;;;;;;;17.97;2.57;;;;;;;-145.19;100.00;57938.22;5011175;28;20030;-71
2022/05/21 06:39:14;;;;;;;14.60;2.73;;;;;;;-145.19;100.00;57938.22;5011410;28;20037;-71
2022/05/21 06:41:39;;;;;;;15.37;2.93;;;;;;;-145.19;100.00;57938.22;5010593;28;20547;-71
2022/05/21 06:44:05;;;;;;;16.97;3.07;;;;;;;-145.19;100.00;57938.22;5011084;28;20033;-71
2022/05/21 06:46:30;;;;;;;20.67;2.83;;;;;;;-145.19;100.00;57938.22;5011639;28;20550;-71
2022/05/21 06:48:55;;;;;;;20.53;4.07;;;;;;;-145.19;100.00;57938.22;5011466;28;20053;-71
2022/05/21 06:51:21;;;;;;;15.87;2.83;;;;;;;-145.19;100.00;57938.22;5011614;28;20038;-71
2022/05/21 06:53:46;;;;;;;17.77;3.10;;;;;;;-145.19;100.00;57938.22;5011557;28;20026;-71
2022/05/21 06:56:14;;;;;;;18.77;3.00;;;;;;;-145.19;100.00;57938.22;5011719;28;20498;-71
2022/05/21 06:58:41;;;;;;;16.50;2.70;;;;;;;-145.19;100.00;57938.22;5011530;28;20372;-71
2022/05/21 07:01:06;;;;;;;18.57;3.10;;;;;;;-145.19;100.00;57938.22;5011097;28;20030;-71
2022/05/21 07:03:32;;;;;;;22.17;4.40;;;;;;;-145.19;100.00;57938.22;5009984;28;20049;-71
2022/05/21 07:08:45;;;;;;;16.13;3.47;;;;;;;-145.19;100.00;57938.22;5001263;28;20045;-71
2022/05/21 07:11:11;;;;;;;18.80;3.53;;;;;;;-145.19;100.00;57938.22;5011066;28;20040;-71
2022/05/21 07:13:36;;;;;;;20.77;4.03;;;;;;;-145.19;100.00;57938.22;5011104;28;20482;-71
2022/05/21 07:16:02;;;;;;;15.80;3.20;;;;;;;-145.19;100.00;57938.22;5011377;28;20103;-70
2022/05/21 07:18:27;;;;;;;21.60;3.30;;;;;;;-145.19;100.00;57938.22;5011061;28;20057;-71
2022/05/21 07:20:56;;;;;;;20.87;5.23;;;;;;;-145.19;100.00;57938.22;5010936;28;20034;-71
2022/05/21 07:23:23;;;;;;;17.23;3.70;;;;;;;-145.19;100.00;57938.22;5011013;28;20034;-71
2022/05/21 07:25:49;;;;;;;19.43;4.20;;;;;;;-145.19;100.00;57938.22;5011321;28;20087;-71
2022/05/21 07:28:16;;;;;;;22.30;3.80;;;;;;;-145.19;100.00;57938.22;5010813;28;20540;-71
2022/05/21 07:30:43;;;;;;;15.50;3.97;;;;;;;-145.19;100.00;57938.22;5008614;28;20033;-72
2022/05/21 07:33:11;;;;;;;23.97;5.20;;;;;;;-145.19;100.00;57938.22;5010317;28;20034;-71
2022/05/21 07:35:37;;;;;;;12.73;3.57;;;;;;;-145.19;100.00;57938.22;5011174;28;20406;-71
2022/05/21 07:38:07;;;;;;;14.80;3.70;;;;;;;-145.19;100.00;57938.22;5009389;28;20072;-72
2022/05/21 07:40:34;;;;;;;16.23;3.10;;;;;;;-145.19;100.00;57938.22;5010923;28;20030;-71
2022/05/21 07:43:08;;;;;;;14.37;3.30;;;;;;;-145.19;100.00;57938.22;5010258;28;20038;-71
2022/05/21 07:45:38;;;;;;;21.07;4.57;;;;;;;-145.19;100.00;57938.22;5010946;28;20053;-71
2022/05/21 07:48:04;;;;;;;16.33;2.97;;;;;;;-145.19;100.00;57938.22;5010744;28;20136;-71
2022/05/21 07:50:29;;;;;;;15.63;2.50;;;;;;;-145.19;100.00;57938.22;5010756;28;20129;-71
2022/05/21 07:52:55;;;;;;;12.90;2.23;;;;;;;-145.19;100.00;57938.22;5010258;28;20554;-71
2022/05/21 07:55:20;;;;;;;21.40;2.90;;;;;;;-145.19;100.00;57938.22;5010594;28;20045;-70
2022/05/21 07:57:45;;;;;;;14.23;2.90;;;;;;;-145.19;100.00;57938.22;5010648;28;20030;-71
2022/05/21 08:00:17;;;;;;;14.73;2.60;;;;;;;-145.19;100.00;57938.22;5010130;28;20357;-71
2022/05/21 08:02:43;;;;;;;19.83;4.53;;;;;;;-145.19;100.00;57938.22;5004967;28;20058;-71
2022/05/21 08:05:09;;;;;;;14.20;2.50;;;;;;;-145.19;100.00;57938.22;5006035;28;20920;-71
2022/05/21 08:07:35;;;;;;;15.10;3.40;;;;;;;-145.19;100.00;57938.22;5010580;28;20128;-71
2022/05/21 08:10:00;;;;;;;16.37;2.60;;;;;;;-145.19;100.00;57938.22;5010057;28;20061;-71
2022/05/21 08:12:25;;;;;;;15.07;3.33;;;;;;;-145.19;100.00;57938.22;5009402;28;20137;-71
2022/05/21 08:14:50;;;;;;;16.33;2.50;;;;;;;-145.19;100.00;57938.22;5008622;28;20038;-71
2022/05/21 08:17:16;;;;;;;16.93;3.20;;;;;;;-145.19;100.00;57938.22;5005207;28;20034;-71
2022/05/21 08:19:43;;;;;;;16.50;2.77;;;;;;;-145.19;100.00;57938.22;4991897;28;20571;-71
2022/05/21 08:27:38;;;;;;;20.27;2.93;;;;;;;-145.19;100.00;57938.22;5006078;28;20271;-70
2022/05/21 08:30:04;;;;;;;14.03;2.90;;;;;;;-145.19;100.00;57938.22;5007680;28;20033;-71
2022/05/21 08:32:29;;;;;;;13.67;3.20;;;;;;;-145.19;100.00;57938.22;5005858;28;20048;-71
2022/05/21 08:34:55;;;;;;;13.27;3.07;;;;;;;-145.19;100.00;57938.22;5009339;28;20109;-71
2022/05/21 08:37:20;;;;;;;12.03;2.40;;;;;;;-145.19;100.00;57938.22;5009159;28;20112;-71
2022/05/21 08:39:47;;;;;;;20.63;3.20;;;;;;;-145.19;100.00;57938.22;5008978;28;20060;-71
2022/05/21 08:42:20;;;;;;;14.73;3.13;;;;;;;-145.19;100.00;57938.22;5008837;28;20447;-71
2022/05/21 08:44:51;;;;;;;19.13;2.23;;;;;;;-145.19;100.00;57938.22;5008670;28;20517;-71
2022/05/21 08:47:23;;;;;;;14.20;2.43;;;;;;;-145.19;100.00;57938.22;5009615;28;20071;-71
2022/05/21 08:49:48;;;;;;;15.43;3.33;;;;;;;-145.19;100.00;57938.22;5011851;28;20569;-71
2022/05/21 08:52:22;;;;;;;19.87;3.43;;;;;;;-145.19;100.00;57938.22;5013572;28;20108;-71
2022/05/21 08:54:50;;;;;;;15.33;2.97;;;;;;;-145.19;100.00;57938.22;5013084;28;20148;-71
2022/05/21 08:57:28;;;;;;;17.00;2.80;;;;;;;-145.19;100.00;57938.22;5013016;28;20022;-71
2022/05/21 09:00:06;;;;;;;18.87;3.63;;;;;;;-145.19;100.00;57938.22;5013232;28;20030;-71
2022/05/21 09:02:34;;;;;;;17.23;2.70;;;;;;;-145.19;100.00;57938.22;5013430;28;20091;-70
2022/05/21 09:05:01;;;;;;;18.67;2.90;;;;;;;-145.19;100.00;57938.22;5013249;28;20034;-71
2022/05/21 09:07:38;;;;;;;12.03;2.97;;;;;;;-145.19;100.00;57938.22;5013047;28;20030;-71
2022/05/21 09:10:29;;;;;;;17.43;2.80;;;;;;;-145.19;100.00;57938.22;5012927;28;20033;-71
2022/05/21 09:13:36;;;;;;;12.63;2.30;;;;;;;-145.19;100.00;57938.22;5013512;28;20037;-71
2022/05/21 09:18:47;;;;;;;16.47;2.70;;;;;;;-145.19;100.00;57938.22;5013399;28;20115;-71
2022/05/21 09:21:21;;;;;;;11.70;2.20;;;;;;;-145.19;100.00;57938.22;5012857;28;20070;-71
2022/05/21 09:23:58;;;;;;;16.43;3.23;;;;;;;-145.19;100.00;57938.22;5011796;28;20045;-71
2022/05/21 09:26:43;;;;;;;14.20;2.77;;;;;;;-145.19;100.00;57938.22;5012892;28;20133;-71
2022/05/21 09:29:34;;;;;;;10.77;2.60;;;;;;;-145.19;100.00;57938.22;5012275;28;20022;-71
2022/05/21 09:32:17;;;;;;;16.20;2.50;;;;;;;-145.19;100.00;57938.22;5011272;28;20374;-71
2022/05/21 09:34:43;;;;;;;12.00;2.20;;;;;;;-145.19;100.00;57938.22;5012424;28;20117;-71
2022/05/21 09:37:19;;;;;;;12.00;3.10;;;;;;;-145.19;100.00;57938.22;5012786;28;20061;-71
2022/05/21 09:39:44;;;;;;;;;;;;;;;-145.19;100.00;57938.22;5012940;28;20033;-71
2022/05/21 09:45:22;;;;;;;;;;;;;;;-145.19;100.00;57938.22;5012463;28;19956;-71
2022/05/21 09:47:47;;;;;;;;;;;;;;;-145.19;100.00;57938.22;5011450;28;19918;-70
2022/05/21 09:50:13;;;;;;;;;;;;;;;-145.19;100.00;57938.22;5012828;28;20019;-71
2022/05/21 09:52:38;;;;;;;;;;;;;;;-145.19;100.00;57938.22;5013427;28;19917;-71
2022/05/21 09:55:04;;;;;;;;;;;;;;;-145.19;100.00;57938.22;5012808;28;19929;-71
2022/05/21 09:57:33;;;;;;;;;;;;;;;-145.19;100.00;57938.22;5013062;28;19957;-71
2022/05/21 10:00:01;;;;;;;;;;;;;;;-145.19;100.00;57938.22;5011614;28;19968;-71
2022/05/21 10:02:35;;;;;;;;;;;;;;;-145.19;100.00;57938.22;5010961;28;19932;-71
2022/05/21 10:05:01;;;;;;;;;;;;;;;-145.19;100.00;57938.22;5007141;28;19918;-71
2022/05/21 10:13:22;;;;;;;;;;;;;;;-145.19;100.00;57938.22;5010892;28;19967;-71
2022/05/21 10:15:50;;;;;;;;;;;;;;;-145.19;100.00;57938.22;5012362;28;20343;-70
2022/05/21 10:18:22;;;;;;;;;;;;;;;-145.19;100.00;57938.22;5011432;28;19959;-71
2022/05/21 10:20:51;;;;;;;;;;;;;;;-145.19;100.00;57938.22;5011023;28;20016;-71
2022/05/21 10:23:29;;;;;;;;;;;;;;;-145.19;100.00;57938.22;5012173;28;19920;-71
2022/05/21 10:26:09;;;;;;;;;;;;;;;-145.19;100.00;57938.22;5012507;28;20365;-71
2022/05/21 10:28:34;;;;;;;;;;;;;;;-145.19;100.00;57938.22;5012459;28;19917;-70
2022/05/21 10:31:22;;;;;;;;;;;;;;;-145.19;100.00;57938.22;5012632;28;20381;-69
2022/05/21 10:33:50;;;;;;;;;;;;;;;-145.19;100.00;57938.22;5011188;28;19975;-71
2022/05/21 10:36:24;;;;;;;;;;;;;;;-145.19;100.00;57938.22;5011765;28;19921;-71
2022/05/21 10:39:04;;;;;;;;;;;;;;;-145.19;100.00;57938.22;5011754;28;20274;-71
2022/05/21 10:41:37;;;;;;;;;;;;;;;-145.19;100.00;57938.22;5011666;28;20011;-71
2022/05/21 10:44:14;;;;;;;;;;;;;;;-145.19;100.00;57938.22;5011687;28;19921;-71
2022/05/21 10:46:51;;;;;;;;;;;;;;;-145.19;100.00;57938.22;5012751;28;20420;-71
2022/05/21 10:49:23;;;;;;;;;;;;;;;-145.19;100.00;57938.22;5011957;28;19913;-71
2022/05/21 10:51:56;;;;;;;;;;;;;;;-145.19;100.00;57938.22;5012229;28;19953;-71
2022/05/21 10:54:21;;;;;;;;;;;;;;;-145.19;100.00;57938.22;5011894;28;19924;-71
2022/05/21 10:56:56;;;;;;;;;;;;;;;-145.19;100.00;57938.22;5012365;28;19914;-71
2022/05/21 10:59:46;;;;;;;;;;;;;;;-145.19;100.00;57938.22;5011740;28;19913;-71
2022/05/21 11:02:11;;;;;;;;;;;;;;;-145.19;100.00;57938.22;5010990;28;20255;-71
2022/05/21 11:04:56;;;;;;;;;;;;;;;-145.19;100.00;57938.22;5011826;28;19924;-71
2022/05/21 11:07:40;;;;;;;;;;;;;;;-145.19;100.00;57938.22;5012127;28;19921;-71
2022/05/21 11:10:24;;;;;;;;;;;;;;;-145.19;100.00;57938.22;5010983;28;20412;-72
2022/05/21 11:12:54;;;;;;;;;;;;;;;-145.19;100.00;57938.22;5009854;28;19913;-71
2022/05/21 11:15:29;;;;;;;;;;;;;;;-145.19;100.00;57938.22;5011421;28;19913;-71
2022/05/21 11:17:57;;;;;;;;;;;;;;;-145.19;100.00;57938.22;5012034;28;19956;-71
2022/05/21 11:20:25;;;;;;;;;;;;;;;-145.19;100.00;57938.22;5010518;28;20020;-71
2022/05/21 11:22:59;;;;;;;;;;;;;;;-145.19;100.00;57938.22;5010753;28;19924;-71
2022/05/21 11:26:04;;;;;;;;;;;;;;;-145.19;100.00;57938.22;5010082;28;19918;-69
2022/05/21 11:28:42;;;;;;;;;;;;;;;-145.19;100.00;57938.22;4989609;28;19963;-71
2022/05/21 11:31:11;;;;;;;;;;;;;;;-145.19;100.00;57938.22;4989739;28;20088;-71
2022/05/21 11:39:10;;;;;;;;;;;;;;;-145.19;100.00;57938.22;5011211;28;19960;-71
2022/05/21 11:41:53;;;;;;;;;;;;;;;-145.19;100.00;57938.22;5011753;28;19959;-71
2022/05/21 11:47:12;;;;;;;;;;;;;;;-145.19;100.00;57938.22;5011751;28;20347;-71
2022/05/21 11:49:38;;;;;;;;;;;;;;;-145.19;100.00;57938.22;5011052;28;19917;-71
2022/05/21 11:52:21;;;;;;;;;;;;;;;-145.19;100.00;57938.22;5011466;28;19960;-71
2022/05/21 11:54:47;;;;;;;;;;;;;;;-145.19;100.00;57938.22;5011176;28;19996;-72
2022/05/21 11:57:29;;;;;;;;;;;;;;;-145.19;100.00;57938.22;5010927;28;20012;-71
2022/05/21 11:59:55;;;;;;;;;;;;;;;-145.19;100.00;57938.22;5011145;28;19913;-71